createdAt,value
2019-04-05T00:00:12.393Z,49.13
2019-04-05T00:02:43.686Z,46.37
2019-04-05T00:05:13.366Z,49.47
2019-04-05T00:07:43.248Z,47.13
2019-04-05T00:10:13.214Z,53.30
2019-04-05T00:12:42.693Z,49.53
2019-04-05T00:15:15.628Z,53.27
2019-04-05T00:17:43.847Z,48.30
2019-04-05T00:20:15.255Z,47.87
2019-04-05T00:22:44.864Z,46.37
2019-04-05T00:25:14.674Z,47.63
2019-04-05T00:27:44.423Z,50.30
2019-04-05T00:30:14.577Z,51.27
2019-04-05T00:32:44.325Z,50.33
2019-04-05T00:35:13.795Z,49.63
2019-04-05T00:37:43.647Z,46.47
2019-04-05T00:40:13.380Z,48.93
2019-04-05T00:42:42.855Z,48.40
2019-04-05T00:45:12.602Z,51.80
2019-04-05T00:47:42.479Z,48.87
2019-04-05T00:50:12.638Z,44.93
2019-04-05T00:52:42.227Z,51.10
2019-04-05T00:55:12.154Z,46.60
2019-04-05T00:57:41.931Z,47.77
2019-04-05T01:00:12.140Z,46.80
2019-04-05T01:02:41.681Z,47.60
2019-04-05T01:05:11.237Z,45.90
2019-04-05T01:07:40.899Z,45.67
2019-04-05T01:10:10.807Z,47.23
2019-04-05T01:12:40.636Z,49.97
2019-04-05T01:15:12.846Z,52.43
2019-04-05T01:17:42.384Z,58.33
2019-04-05T01:20:12.366Z,57.83
2019-04-05T01:22:42.793Z,50.00
2019-04-05T01:25:12.727Z,54.63
2019-04-05T01:27:42.639Z,49.90
2019-04-05T01:30:16.186Z,59.77
2019-04-05T01:32:46.196Z,53.13
2019-04-05T01:35:15.780Z,50.60
2019-04-05T01:37:45.920Z,51.63
2019-04-05T01:40:15.842Z,56.97
2019-04-05T01:42:45.590Z,54.33
2019-04-05T01:45:15.797Z,55.50
2019-04-05T01:47:45.279Z,60.80
2019-04-05T01:50:16.230Z,55.90
2019-04-05T01:52:46.342Z,57.47
2019-04-05T01:55:15.897Z,55.90
2019-04-05T01:57:45.388Z,60.23
2019-04-05T02:00:15.574Z,61.00
2019-04-05T02:02:45.168Z,59.40
2019-04-05T02:05:15.078Z,55.73
2019-04-05T02:07:45.441Z,60.07
2019-04-05T02:10:15.139Z,56.87
2019-04-05T02:12:44.635Z,57.67
2019-04-05T02:15:32.068Z,55.90
2019-04-05T02:18:01.557Z,51.33
2019-04-05T02:20:31.168Z,56.03
2019-04-05T02:23:00.751Z,55.73
2019-04-05T02:25:30.293Z,55.53
2019-04-05T02:28:00.091Z,62.63
2019-04-05T02:30:29.630Z,60.43
2019-04-05T02:32:59.118Z,57.47
2019-04-05T02:35:28.748Z,52.77
2019-04-05T02:37:58.230Z,53.03
2019-04-05T02:40:28.243Z,64.70
2019-04-05T02:43:00.903Z,56.30
2019-04-05T02:45:33.955Z,55.70
2019-04-05T02:48:06.784Z,60.33
2019-04-05T02:50:39.317Z,62.97
2019-04-05T02:53:11.449Z,49.63
2019-04-05T02:55:44.098Z,64.30
2019-04-05T02:58:13.882Z,56.80
2019-04-05T03:00:44.252Z,52.10
2019-04-05T03:03:14.687Z,56.73
2019-04-05T03:05:46.472Z,56.20
2019-04-05T03:08:17.262Z,53.90
2019-04-05T03:11:07.523Z,52.17
2019-04-05T03:13:39.947Z,51.63
2019-04-05T03:16:18.379Z,50.97
2019-04-05T03:18:52.039Z,60.23
2019-04-05T03:21:24.814Z,52.90
2019-04-05T03:23:57.132Z,57.23
2019-04-05T03:26:29.624Z,54.17
2019-04-05T03:29:01.718Z,56.67
2019-04-05T03:31:31.395Z,53.47
2019-04-05T03:34:00.754Z,51.87
2019-04-05T03:36:30.630Z,52.50
2019-04-05T03:39:00.170Z,51.10
2019-04-05T03:41:29.925Z,53.80
2019-04-05T03:43:59.820Z,51.03
2019-04-05T03:46:29.849Z,47.43
2019-04-05T03:48:59.564Z,50.67
2019-04-05T03:51:29.490Z,48.30
2019-04-05T03:53:59.347Z,53.10
2019-04-05T03:56:29.612Z,47.63
2019-04-05T03:58:59.146Z,50.03
2019-04-05T04:01:28.740Z,52.00
2019-04-05T04:03:58.339Z,52.90
2019-04-05T04:06:28.145Z,53.37
2019-04-05T04:08:57.651Z,47.33
2019-04-05T04:11:27.285Z,46.03
2019-04-05T04:13:57.267Z,48.87
2019-04-05T04:16:26.759Z,52.70
2019-04-05T04:18:56.315Z,55.10
2019-04-05T04:21:31.947Z,46.63
2019-04-05T04:24:01.740Z,56.87
2019-04-05T04:26:32.135Z,52.53
2019-04-05T04:29:01.925Z,45.97
2019-04-05T04:31:31.353Z,53.87
2019-04-05T04:34:01.147Z,47.97
2019-04-05T04:36:30.972Z,54.07
2019-04-05T04:39:00.570Z,47.10
2019-04-05T04:41:31.973Z,49.47
2019-04-05T04:44:01.954Z,50.73
2019-04-05T04:46:32.504Z,44.87
2019-04-05T04:49:02.464Z,50.87
2019-04-05T04:51:32.554Z,41.27
2019-04-05T04:54:02.053Z,47.90
2019-04-05T04:56:32.046Z,51.60
2019-04-05T04:59:01.469Z,50.87
2019-04-05T05:01:31.074Z,46.47
2019-04-05T05:04:01.510Z,46.83
2019-04-05T05:06:31.008Z,49.47
2019-04-05T05:09:00.784Z,48.93
2019-04-05T05:11:30.698Z,50.43
2019-04-05T05:14:00.355Z,49.27
2019-04-05T05:16:30.079Z,47.17
2019-04-05T05:18:59.666Z,46.23
2019-04-05T05:21:29.444Z,56.00
2019-04-05T05:23:59.385Z,47.33
2019-04-05T05:26:29.356Z,58.13
2019-04-05T05:28:59.272Z,53.30
2019-04-05T05:31:28.853Z,63.17
2019-04-05T05:33:58.353Z,52.70
2019-04-05T05:36:27.909Z,56.20
2019-04-05T05:38:57.535Z,54.27
2019-04-05T05:41:27.026Z,61.03
2019-04-05T05:43:56.578Z,58.90
2019-04-05T05:46:25.953Z,46.93
2019-04-05T05:48:56.367Z,52.07
2019-04-05T05:51:25.835Z,55.00
2019-04-05T05:53:55.339Z,56.97
2019-04-05T05:56:24.779Z,54.83
2019-04-05T05:58:58.909Z,52.57
2019-04-05T06:01:25.208Z,58.43
2019-04-05T06:03:54.937Z,57.47
2019-04-05T06:06:24.364Z,55.73
2019-04-05T06:08:54.910Z,54.13
2019-04-05T06:11:24.350Z,53.03
2019-04-05T06:13:53.941Z,53.97
2019-04-05T06:16:23.325Z,52.13
2019-04-05T06:18:52.694Z,54.23
2019-04-05T06:21:22.196Z,64.57
2019-04-05T06:23:51.591Z,50.63
2019-04-05T06:26:21.221Z,55.20
2019-04-05T06:28:50.879Z,51.80
2019-04-05T06:31:20.490Z,53.70
2019-04-05T06:33:49.860Z,51.33
2019-04-05T06:36:20.597Z,50.73
2019-04-05T06:38:50.028Z,50.17
2019-04-05T06:41:19.470Z,50.07
2019-04-05T06:43:48.873Z,46.07
2019-04-05T06:46:18.236Z,48.07
2019-04-05T06:48:47.735Z,54.97
2019-04-05T06:51:17.280Z,44.40
2019-04-05T06:53:47.024Z,59.43
2019-04-05T06:56:16.464Z,51.97
2019-04-05T06:58:46.428Z,52.20
2019-04-05T07:01:15.973Z,47.17
2019-04-05T07:03:45.336Z,46.53
2019-04-05T07:06:14.797Z,58.30
2019-04-05T07:08:53.471Z,48.50
2019-04-05T07:11:15.324Z,46.13
2019-04-05T07:13:45.714Z,48.33
2019-04-05T07:16:15.185Z,53.20
2019-04-05T07:18:44.674Z,85.60
2019-04-05T07:21:17.164Z,60.37
2019-04-05T07:23:45.466Z,55.90
2019-04-05T07:26:15.017Z,64.40
2019-04-05T07:28:44.549Z,51.43
2019-04-05T07:31:14.006Z,57.87
2019-04-05T07:33:43.479Z,71.77
2019-04-05T07:36:12.932Z,56.97
2019-04-05T07:38:42.398Z,55.70
2019-04-05T07:41:11.950Z,57.40
2019-04-05T07:43:41.491Z,51.60
2019-04-05T07:46:10.953Z,56.80
2019-04-05T07:48:45.083Z,53.17
2019-04-05T07:51:11.611Z,63.97
2019-04-05T07:53:41.108Z,48.87
2019-04-05T07:56:10.553Z,51.80
2019-04-05T07:58:40.360Z,52.57
2019-04-05T08:01:09.909Z,51.47
2019-04-05T08:03:39.473Z,47.60
2019-04-05T08:06:09.004Z,43.00
2019-04-05T08:08:41.580Z,43.37
2019-04-05T08:11:11.485Z,39.77
2019-04-05T08:13:44.149Z,53.07
2019-04-05T08:16:13.772Z,45.23
2019-04-05T08:18:43.313Z,39.23
2019-04-05T08:21:12.837Z,42.40
2019-04-05T08:23:42.313Z,37.17
2019-04-05T08:26:12.832Z,43.83
2019-04-05T08:28:42.344Z,40.93
2019-04-05T08:31:14.512Z,32.40
2019-04-05T08:33:44.241Z,37.33
2019-04-05T08:36:13.895Z,44.30
2019-04-05T08:38:43.523Z,36.10
2019-04-05T08:41:13.092Z,36.20
2019-04-05T08:43:43.740Z,36.43
2019-04-05T08:46:13.318Z,33.87
2019-04-05T08:48:44.123Z,33.97
2019-04-05T08:51:13.575Z,38.87
2019-04-05T08:53:43.137Z,32.87
2019-04-05T08:56:14.407Z,43.20
2019-04-05T08:58:43.925Z,43.40
2019-04-05T09:01:13.460Z,34.80
2019-04-05T09:03:42.944Z,38.97
2019-04-05T09:06:12.557Z,44.30
2019-04-05T09:08:42.305Z,37.10
2019-04-05T09:11:12.060Z,44.20
2019-04-05T09:13:41.711Z,46.70
2019-04-05T09:16:11.817Z,43.43
2019-04-05T09:18:41.645Z,45.67
2019-04-05T09:21:11.237Z,45.80
2019-04-05T09:23:41.110Z,40.00
2019-04-05T09:26:10.612Z,53.30
2019-04-05T09:28:40.072Z,44.83
2019-04-05T09:31:09.560Z,40.13
2019-04-05T09:33:39.137Z,38.77
2019-04-05T09:36:08.802Z,36.23
2019-04-05T09:38:39.284Z,33.03
2019-04-05T09:41:09.118Z,35.60
2019-04-05T09:43:38.606Z,34.17
2019-04-05T09:46:08.411Z,34.83
2019-04-05T09:48:37.898Z,38.70
2019-04-05T09:51:07.390Z,35.83
2019-04-05T09:53:36.854Z,29.47
2019-04-05T09:56:06.531Z,36.10
2019-04-05T09:58:36.045Z,33.80
2019-04-05T10:01:05.603Z,32.83
2019-04-05T10:03:35.230Z,35.60
2019-04-05T10:06:04.919Z,40.53
2019-04-05T10:08:34.567Z,38.20
2019-04-05T10:11:04.173Z,33.90
2019-04-05T10:13:33.719Z,34.87
2019-04-05T10:16:04.167Z,33.00
2019-04-05T10:18:33.658Z,37.30
2019-04-05T10:21:03.127Z,33.87
2019-04-05T10:23:32.573Z,35.53
2019-04-05T10:26:02.088Z,43.20
2019-04-05T10:28:31.560Z,39.83
2019-04-05T10:31:01.041Z,37.83
2019-04-05T10:33:31.716Z,35.87
2019-04-05T10:36:01.172Z,43.00
2019-04-05T10:38:30.663Z,38.10
2019-04-05T10:41:00.230Z,38.17
2019-04-05T10:43:29.700Z,36.93
2019-04-05T10:45:59.243Z,36.70
2019-04-05T10:48:28.830Z,38.87
2019-04-05T10:50:59.514Z,39.43
2019-04-05T10:53:29.078Z,43.10
2019-04-05T10:55:58.632Z,43.43
2019-04-05T10:58:28.338Z,51.93
2019-04-05T11:00:57.886Z,50.03
2019-04-05T11:03:27.444Z,47.40
2019-04-05T11:05:56.998Z,51.50
2019-04-05T11:08:26.489Z,44.73
2019-04-05T11:10:56.034Z,44.87
2019-04-05T11:13:25.502Z,46.20
2019-04-05T11:15:55.148Z,43.00
2019-04-05T11:18:24.605Z,35.30
2019-04-05T11:20:54.427Z,35.73
2019-04-05T11:23:23.903Z,34.23
2019-04-05T11:25:53.279Z,37.43
2019-04-05T11:28:22.718Z,35.13
2019-04-05T11:30:52.187Z,27.60
2019-04-05T11:33:21.639Z,30.60
2019-04-05T11:35:51.222Z,29.23
2019-04-05T11:38:24.114Z,28.80
2019-04-05T11:40:53.578Z,27.40
2019-04-05T11:43:26.879Z,26.97
2019-04-05T11:45:56.883Z,25.07
2019-04-05T11:48:28.244Z,24.97
2019-04-05T11:50:57.909Z,20.63
2019-04-05T11:53:27.417Z,26.60
2019-04-05T11:55:56.887Z,20.63
2019-04-05T11:58:26.417Z,21.57
2019-04-05T12:00:58.506Z,24.30
2019-04-05T12:03:32.245Z,20.90
2019-04-05T12:06:01.729Z,23.30
2019-04-05T12:08:31.249Z,18.60
2019-04-05T12:11:00.754Z,27.87
2019-04-05T12:13:30.322Z,26.93
2019-04-05T12:16:00.060Z,21.40
2019-04-05T12:18:29.548Z,23.93
2019-04-05T12:21:00.646Z,22.00
2019-04-05T12:23:32.570Z,24.83
2019-04-05T12:26:04.798Z,20.07
2019-04-05T12:28:33.404Z,21.63
2019-04-05T12:31:03.404Z,25.17
2019-04-05T12:33:33.150Z,25.57
2019-04-05T12:36:02.718Z,20.03
2019-04-05T12:38:33.283Z,25.90
2019-04-05T12:41:04.264Z,25.07
2019-04-05T12:43:34.539Z,23.33
2019-04-05T12:46:05.684Z,28.57
2019-04-05T12:48:35.343Z,26.40
2019-04-05T12:51:05.592Z,24.50
2019-04-05T12:53:36.638Z,22.33
2019-04-05T12:56:06.669Z,21.47
2019-04-05T12:58:36.171Z,17.80
2019-04-05T13:01:08.227Z,18.60
2019-04-05T13:03:37.927Z,17.17
2019-04-05T13:06:07.546Z,22.20
2019-04-05T13:08:37.009Z,21.67
2019-04-05T13:11:06.667Z,19.40
2019-04-05T13:13:36.101Z,19.17
2019-04-05T13:16:09.871Z,19.10
2019-04-05T13:18:36.940Z,17.97
2019-04-05T13:21:14.409Z,17.87
2019-04-05T13:23:37.863Z,17.20
2019-04-05T13:26:09.429Z,29.97
2019-04-05T13:28:40.131Z,22.20
2019-04-05T13:31:09.716Z,15.17
2019-04-05T13:33:40.459Z,16.90
2019-04-05T13:36:10.096Z,18.67
2019-04-05T13:38:39.642Z,16.67
2019-04-05T13:41:10.203Z,17.87
2019-04-05T13:43:39.662Z,17.40
2019-04-05T13:46:21.057Z,14.73
2019-04-05T13:48:40.714Z,14.63
2019-04-05T13:51:12.251Z,17.00
2019-04-05T13:53:41.592Z,17.93
2019-04-05T13:56:12.199Z,19.40
2019-04-05T13:58:46.116Z,16.27
2019-04-05T14:01:13.852Z,17.33
2019-04-05T14:03:43.656Z,21.40
2019-04-05T14:06:13.146Z,23.40
2019-04-05T14:08:42.694Z,24.90
2019-04-05T14:11:12.124Z,28.33
2019-04-05T14:13:42.912Z,25.03
2019-04-05T14:16:13.147Z,24.60
2019-04-05T14:18:49.408Z,21.03
2019-04-05T14:21:13.878Z,27.90
2019-04-05T14:23:43.604Z,21.43
2019-04-05T14:26:13.054Z,22.37
2019-04-05T14:28:42.668Z,20.67
2019-04-05T14:31:12.118Z,22.57
2019-04-05T14:33:41.615Z,27.87
2019-04-05T14:36:11.109Z,25.30
2019-04-05T14:38:40.602Z,27.60
2019-04-05T14:41:10.126Z,28.33
2019-04-05T14:43:39.894Z,28.83
2019-04-05T14:46:09.460Z,29.73
2019-04-05T14:48:39.018Z,28.17
2019-04-05T14:51:08.485Z,29.43
2019-04-05T14:53:38.953Z,29.23
2019-04-05T14:56:08.479Z,32.93
2019-04-05T14:58:38.008Z,30.03
2019-04-05T15:01:10.336Z,30.87
2019-04-05T15:03:38.667Z,32.03
2019-04-05T15:06:08.287Z,32.20
2019-04-05T15:08:37.816Z,31.80
2019-04-05T15:11:07.319Z,29.70
2019-04-05T15:13:36.815Z,30.20
2019-04-05T15:16:06.415Z,30.27
2019-04-05T15:18:35.981Z,28.87
2019-04-05T15:21:06.544Z,25.20
2019-04-05T15:23:36.093Z,23.57
2019-04-05T15:26:05.682Z,29.23
2019-04-05T15:28:35.274Z,25.47
2019-04-05T15:31:05.809Z,25.67
2019-04-05T15:33:35.336Z,29.27
2019-04-05T15:36:05.104Z,28.70
2019-04-05T15:38:34.640Z,34.20
2019-04-05T15:41:04.165Z,33.27
2019-04-05T15:43:33.734Z,32.87
2019-04-05T15:46:03.279Z,30.97
2019-04-05T15:48:32.709Z,32.43
2019-04-05T15:51:02.593Z,34.70
2019-04-05T15:53:32.645Z,33.73
2019-04-05T15:56:04.394Z,29.00
2019-04-05T15:58:34.124Z,35.10
2019-04-05T16:01:04.944Z,32.07
2019-04-05T16:03:36.883Z,33.83
2019-04-05T16:06:05.973Z,36.00
2019-04-05T16:08:35.480Z,38.77
2019-04-05T16:11:05.253Z,44.93
2019-04-05T16:13:35.876Z,38.33
2019-04-05T16:16:05.409Z,41.73
2019-04-05T16:18:34.895Z,36.27
2019-04-05T16:21:04.536Z,37.70
2019-04-05T16:23:34.075Z,38.50
2019-04-05T16:26:04.109Z,42.07
2019-04-05T16:28:33.671Z,42.53
2019-04-05T16:31:03.154Z,46.97
2019-04-05T16:33:32.671Z,46.50
2019-04-05T16:36:02.207Z,50.13
2019-04-05T16:38:31.685Z,47.47
2019-04-05T16:41:01.173Z,47.17
2019-04-05T16:43:30.629Z,47.43
2019-04-05T16:46:00.522Z,49.00
2019-04-05T16:48:30.223Z,50.47
2019-04-05T16:51:00.149Z,51.00
2019-04-05T16:53:29.856Z,50.53
2019-04-05T16:55:59.488Z,52.53
2019-04-05T16:58:29.005Z,50.00
2019-04-05T17:00:58.647Z,52.63
2019-04-05T17:03:28.186Z,50.60
2019-04-05T17:05:57.824Z,50.30
2019-04-05T17:08:27.463Z,56.03
2019-04-05T17:10:56.988Z,49.57
2019-04-05T17:13:26.835Z,46.27
2019-04-05T17:15:56.578Z,53.17
2019-04-05T17:18:26.428Z,46.87
2019-04-05T17:20:56.216Z,43.73
2019-04-05T17:23:25.834Z,39.43
2019-04-05T17:25:56.446Z,40.27
2019-04-05T17:28:25.998Z,36.03
2019-04-05T17:30:55.646Z,35.30
2019-04-05T17:33:25.145Z,36.13
2019-04-05T17:35:54.652Z,39.60
2019-04-05T17:38:24.563Z,38.57
2019-04-05T17:40:54.407Z,44.97
2019-04-05T17:43:24.040Z,43.43
2019-04-05T17:45:53.657Z,46.37
2019-04-05T17:48:23.506Z,46.63
2019-04-05T17:50:54.845Z,57.97
2019-04-05T17:53:24.532Z,54.93
2019-04-05T17:55:54.351Z,51.97
2019-04-05T17:58:26.925Z,53.23
2019-04-05T18:00:56.519Z,48.83
2019-04-05T18:03:25.993Z,54.80
2019-04-05T18:05:55.537Z,58.33
2019-04-05T18:08:25.005Z,55.90
2019-04-05T18:10:54.651Z,56.83
2019-04-05T18:13:25.139Z,56.43
2019-04-05T18:15:54.596Z,53.50
2019-04-05T18:18:24.161Z,54.37
2019-04-05T18:20:54.831Z,56.00
2019-04-05T18:23:25.777Z,55.33
2019-04-05T18:25:55.417Z,54.33
2019-04-05T18:28:25.072Z,55.70
2019-04-05T18:30:54.558Z,55.13
2019-04-05T18:33:24.022Z,56.57
2019-04-05T18:35:53.897Z,51.67
2019-04-05T18:38:23.718Z,58.33
2019-04-05T18:40:53.380Z,57.17
2019-04-05T18:43:22.876Z,56.40
2019-04-05T18:45:52.454Z,60.00
2019-04-05T18:48:21.972Z,62.07
2019-04-05T18:50:52.994Z,58.80
2019-04-05T18:53:22.520Z,59.10
2019-04-05T18:55:52.007Z,56.60
2019-04-05T18:58:22.040Z,55.20
2019-04-05T19:00:51.498Z,63.80
2019-04-05T19:03:21.036Z,60.13
2019-04-05T19:05:51.885Z,58.90
2019-04-05T19:08:21.671Z,63.00
2019-04-05T19:10:51.118Z,60.63
2019-04-05T19:13:20.603Z,62.17
2019-04-05T19:15:50.108Z,62.53
2019-04-05T19:18:19.552Z,60.87
2019-04-05T19:20:49.047Z,61.93
2019-04-05T19:23:18.555Z,62.90
2019-04-05T19:25:48.004Z,58.97
2019-04-05T19:28:17.431Z,67.50
2019-04-05T19:50:57.007Z,67.20
2019-04-05T19:53:27.610Z,64.13
2019-04-05T19:55:57.304Z,66.57
2019-04-05T19:58:26.838Z,61.53
2019-04-05T20:00:56.559Z,54.83
2019-04-05T20:03:26.293Z,57.00
2019-04-05T20:05:55.798Z,59.37
2019-04-05T20:08:25.354Z,56.30
2019-04-05T20:10:54.905Z,61.53
2019-04-05T20:13:24.375Z,64.53
2019-04-05T20:15:53.796Z,57.37
2019-04-05T20:18:23.394Z,57.37
2019-04-05T20:20:52.941Z,63.67
2019-04-05T20:23:23.910Z,62.57
2019-04-05T20:25:53.748Z,64.27
2019-04-05T20:28:23.344Z,64.50
2019-04-05T20:30:52.852Z,69.20
2019-04-05T20:33:22.350Z,64.17
2019-04-05T20:35:52.085Z,70.80
2019-04-05T20:38:21.599Z,65.97
2019-04-05T20:40:51.175Z,77.73
2019-04-05T20:43:20.710Z,74.10
2019-04-05T20:45:50.363Z,75.47
2019-04-05T20:48:19.810Z,71.57
2019-04-05T20:50:49.320Z,77.83
2019-04-05T20:53:18.895Z,77.57
2019-04-05T20:55:48.401Z,79.83
2019-04-05T20:58:17.862Z,81.93
2019-04-05T21:00:47.397Z,73.90
2019-04-05T21:03:16.822Z,82.93
2019-04-05T21:05:47.234Z,83.13
2019-04-05T21:08:16.651Z,82.10
2019-04-05T21:10:46.147Z,83.67
2019-04-05T21:13:16.095Z,79.90
2019-04-05T21:15:46.321Z,81.33
2019-04-05T21:18:15.807Z,82.87
2019-04-05T21:20:45.713Z,80.03
2019-04-05T21:23:15.224Z,82.10
2019-04-05T21:25:44.703Z,85.97
2019-04-05T21:28:14.182Z,87.00
2019-04-05T21:30:43.642Z,83.97
2019-04-05T21:33:13.519Z,81.00
2019-04-05T21:35:45.709Z,83.30
2019-04-05T21:38:14.229Z,84.53
2019-04-05T21:40:43.817Z,80.20
2019-04-05T21:43:14.275Z,84.60
2019-04-05T21:45:43.767Z,92.23
2019-04-05T21:48:13.312Z,92.57
2019-04-05T21:50:42.777Z,88.37
2019-04-05T21:53:13.457Z,82.23
2019-04-05T21:55:42.957Z,86.10
2019-04-05T21:58:12.467Z,91.67
2019-04-05T22:00:46.831Z,94.53
2019-04-05T22:03:17.487Z,90.03
2019-04-05T22:05:47.150Z,88.00
2019-04-05T22:08:16.639Z,93.60
2019-04-05T22:10:46.147Z,100.07
2019-04-05T22:16:09.236Z,91.27
2019-04-05T22:18:39.354Z,88.80
2019-04-05T22:21:09.330Z,86.37
2019-04-05T22:23:39.509Z,94.37
2019-04-05T22:26:09.082Z,87.30
2019-04-05T22:28:38.659Z,86.90
2019-04-05T22:31:08.171Z,98.90
2019-04-05T22:33:38.111Z,92.40
2019-04-05T22:36:07.716Z,94.57
2019-04-05T22:38:37.228Z,101.80
2019-04-05T22:41:06.769Z,96.50
2019-04-05T22:43:36.355Z,100.17
2019-04-05T22:46:05.926Z,99.63
2019-04-05T22:48:35.438Z,98.70
2019-04-05T22:51:04.966Z,96.30
2019-04-05T22:53:34.508Z,98.30
2019-04-05T22:56:04.270Z,97.17
2019-04-05T22:58:34.211Z,99.13
2019-04-05T23:01:03.807Z,94.27
2019-04-05T23:03:33.494Z,95.57
2019-04-05T23:06:03.047Z,102.63
2019-04-05T23:08:32.560Z,102.33
2019-04-05T23:11:02.086Z,107.03
2019-04-05T23:13:31.975Z,104.83
2019-04-05T23:16:01.460Z,103.93
2019-04-05T23:18:32.091Z,94.43
2019-04-05T23:21:01.589Z,99.33
2019-04-05T23:23:31.597Z,107.20
2019-04-05T23:26:01.140Z,101.30
2019-04-05T23:28:32.543Z,103.50
2019-04-05T23:31:01.811Z,103.10
2019-04-05T23:33:31.357Z,103.50
2019-04-05T23:36:00.874Z,99.97
2019-04-05T23:38:31.609Z,93.47
2019-04-05T23:41:01.217Z,110.70
2019-04-05T23:43:30.825Z,110.47
2019-04-05T23:46:00.377Z,104.67
2019-04-05T23:48:30.141Z,101.43
2019-04-05T23:50:59.663Z,101.77
2019-04-05T23:53:29.335Z,101.33
2019-04-05T23:55:58.829Z,95.00
2019-04-05T23:58:28.351Z,100.50
